createdAt,value
2022-10-18T00:01:52.336Z,1009.34
2022-10-18T00:07:36.671Z,1009.28
2022-10-18T00:13:20.415Z,1009.29
2022-10-18T00:19:04.406Z,1009.2
2022-10-18T00:24:47.665Z,1009.24
2022-10-18T00:30:30.796Z,1009.31
2022-10-18T00:36:14.589Z,1009.33
2022-10-18T00:41:57.972Z,1009.38
2022-10-18T00:47:41.571Z,1009.43
2022-10-18T00:53:24.787Z,1009.53
2022-10-18T00:59:08.163Z,1009.54
2022-10-18T01:04:51.367Z,1009.56
2022-10-18T01:10:39.900Z,1009.47
2022-10-18T01:16:27.785Z,1009.45
2022-10-18T01:22:16.070Z,1009.34
2022-10-18T01:28:05.281Z,1009.41
2022-10-18T01:33:50.598Z,1009.42
2022-10-18T01:39:36.215Z,1009.46
2022-10-18T01:45:20.527Z,1009.48
2022-10-18T01:51:03.786Z,1009.37
2022-10-18T01:56:54.310Z,1009.26
2022-10-18T02:02:42.543Z,1009.23
2022-10-18T02:08:27.945Z,1009.26
2022-10-18T02:14:12.754Z,1009.35
2022-10-18T02:19:56.817Z,1009.35
2022-10-18T02:25:40.148Z,1009.25
2022-10-18T02:31:25.900Z,1009.27
2022-10-18T02:37:09.321Z,1009.34
2022-10-18T02:42:55.107Z,1009.39
2022-10-18T02:48:38.371Z,1009.35
2022-10-18T02:54:21.879Z,1009.34
2022-10-18T03:00:05.784Z,1009.36
2022-10-18T03:05:49.951Z,1009.38
2022-10-18T03:11:33.237Z,1009.46
2022-10-18T03:17:16.740Z,1009.52
2022-10-18T03:22:59.871Z,1009.6
2022-10-18T03:28:44.197Z,1009.65
2022-10-18T03:34:27.602Z,1009.68
2022-10-18T03:40:11.602Z,1009.72
2022-10-18T03:45:54.830Z,1009.84
2022-10-18T03:51:37.901Z,1009.88
2022-10-18T03:57:21.044Z,1009.84
2022-10-18T04:03:04.475Z,1009.74
2022-10-18T04:08:47.826Z,1009.75
2022-10-18T04:14:31.206Z,1009.74
2022-10-18T04:20:15.257Z,1009.82
2022-10-18T04:25:58.257Z,1009.84
2022-10-18T04:31:41.522Z,1009.88
2022-10-18T04:37:24.952Z,1009.92
2022-10-18T04:43:08.077Z,1009.96
2022-10-18T04:48:51.410Z,1010
2022-10-18T04:54:34.818Z,1010.09
2022-10-18T05:00:18.413Z,1010.06
2022-10-18T05:06:04.280Z,1010.03
2022-10-18T05:11:50.698Z,1010.08
2022-10-18T05:17:34.122Z,1010.09
2022-10-18T05:23:17.226Z,1010.09
2022-10-18T05:29:00.509Z,1010.13
2022-10-18T05:34:44.099Z,1010.2
2022-10-18T05:40:27.258Z,1010.14
2022-10-18T05:46:16.070Z,1010.12
2022-10-18T05:51:59.184Z,1010.13
2022-10-18T05:57:42.251Z,1010.23
2022-10-18T06:03:25.575Z,1010.36
2022-10-18T06:09:08.950Z,1010.34
2022-10-18T06:14:52.109Z,1010.32
2022-10-18T06:20:35.271Z,1010.29
2022-10-18T06:26:19.013Z,1010.29
2022-10-18T06:32:02.134Z,1010.38
2022-10-18T06:37:45.253Z,1010.45
2022-10-18T06:43:28.581Z,1010.46
2022-10-18T06:49:16.653Z,1010.54
2022-10-18T06:55:07.213Z,1010.54
2022-10-18T07:00:51.747Z,1010.53
2022-10-18T07:06:34.939Z,1010.57
2022-10-18T07:12:18.111Z,1010.73
2022-10-18T07:18:01.293Z,1010.82
2022-10-18T07:23:45.418Z,1010.8
2022-10-18T07:29:28.747Z,1010.81
2022-10-18T07:41:01.418Z,1011.01
2022-10-18T07:46:44.600Z,1011.04
2022-10-18T07:52:27.932Z,1011.12
2022-10-18T07:58:11.378Z,1011.23
2022-10-18T08:03:54.639Z,1011.19
2022-10-18T08:09:39.306Z,1011.25
2022-10-18T08:15:22.404Z,1011.4
2022-10-18T08:21:07.330Z,1011.41
2022-10-18T08:26:51.646Z,1011.33
2022-10-18T08:32:35.541Z,1011.37
2022-10-18T08:38:19.824Z,1011.37
2022-10-18T08:44:08.315Z,1011.31
2022-10-18T08:49:53.462Z,1011.35
2022-10-18T08:55:39.111Z,1011.42
2022-10-18T09:01:29.006Z,1011.38
2022-10-18T09:07:24.390Z,1011.48
2022-10-18T09:13:22.178Z,1011.53
2022-10-18T09:19:10.373Z,1011.55
2022-10-18T09:24:57.483Z,1011.71
2022-10-18T09:30:45.859Z,1011.7
2022-10-18T09:36:31.971Z,1011.85
2022-10-18T09:42:19.155Z,1011.87
2022-10-18T09:48:08.097Z,1011.9
2022-10-18T09:53:57.235Z,1011.84
2022-10-18T09:59:41.814Z,1011.86
2022-10-18T10:05:25.107Z,1011.84
2022-10-18T10:11:14.551Z,1011.97
2022-10-18T10:16:59.183Z,1011.88
2022-10-18T10:22:43.139Z,1012.01
2022-10-18T10:28:29.272Z,1012.02
2022-10-18T10:34:19.208Z,1012.1
2022-10-18T10:40:25.232Z,1012.08
2022-10-18T10:46:12.769Z,1012.2
2022-10-18T10:52:25.825Z,1012.2
2022-10-18T10:58:04.068Z,1012.19
2022-10-18T11:03:50.453Z,1012.17
2022-10-18T11:09:39.817Z,1012.17
2022-10-18T11:15:28.123Z,1012.21
2022-10-18T11:21:13.815Z,1012.14
2022-10-18T11:27:01.616Z,1012.22
2022-10-18T11:32:48.570Z,1012.13
2022-10-18T11:38:39.678Z,1012.09
2022-10-18T11:44:28.180Z,1012.06
2022-10-18T11:50:17.672Z,1012.04
2022-10-18T11:56:05.425Z,1011.94
2022-10-18T12:01:53.517Z,1011.92
2022-10-18T12:07:40.558Z,1011.82
2022-10-18T12:13:26.195Z,1011.77
2022-10-18T12:19:14.394Z,1011.69
2022-10-18T12:24:57.794Z,1011.68
2022-10-18T12:30:44.430Z,1011.64
2022-10-18T12:36:35.524Z,1011.6
2022-10-18T12:42:23.311Z,1011.66
2022-10-18T12:48:07.847Z,1011.67
2022-10-18T12:53:55.925Z,1011.62
2022-10-18T12:59:43.717Z,1011.53
2022-10-18T13:05:52.747Z,1011.56
2022-10-18T13:11:38.348Z,1011.44
2022-10-18T13:17:26.858Z,1011.43
2022-10-18T13:23:17.873Z,1011.35
2022-10-18T13:29:06.633Z,1011.33
2022-10-18T13:34:50.300Z,1011.39
2022-10-18T13:40:34.007Z,1011.33
2022-10-18T13:46:17.646Z,1011.45
2022-10-18T13:52:08.827Z,1011.48
2022-10-18T13:57:57.910Z,1011.47
2022-10-18T14:03:59.622Z,1011.46
2022-10-18T14:09:54.209Z,1011.49
2022-10-18T14:15:46.383Z,1011.45
2022-10-18T14:21:34.841Z,1011.39
2022-10-18T14:27:21.829Z,1011.36
2022-10-18T14:33:05.414Z,1011.37
2022-10-18T14:38:52.207Z,1011.25
2022-10-18T14:44:35.550Z,1011.23
2022-10-18T14:50:31.674Z,1011.27
2022-10-18T14:56:20.966Z,1011.28
2022-10-18T15:02:05.523Z,1011.3
2022-10-18T15:07:51.162Z,1011.26
2022-10-18T15:13:35.167Z,1011.21
2022-10-18T15:19:38.851Z,1011.19
2022-10-18T15:25:23.765Z,1011.24
2022-10-18T15:31:22.611Z,1011.22
2022-10-18T15:37:11.781Z,1011.2
2022-10-18T15:42:56.195Z,1011.13
2022-10-18T15:48:41.187Z,1011.18
2022-10-18T15:54:29.562Z,1011.1
2022-10-18T16:00:19.079Z,1011.08
2022-10-18T16:06:04.590Z,1011.14
2022-10-18T16:11:48.309Z,1011.17
2022-10-18T16:17:39.375Z,1011.2
2022-10-18T16:23:24.459Z,1011.23
2022-10-18T16:29:10.980Z,1011.27
2022-10-18T16:34:54.387Z,1011.31
2022-10-18T16:40:42.102Z,1011.38
2022-10-18T16:46:26.956Z,1011.44
2022-10-18T16:52:10.449Z,1011.42
2022-10-18T16:57:53.806Z,1011.45
2022-10-18T17:03:37.061Z,1011.47
2022-10-18T17:09:20.339Z,1011.53
2022-10-18T17:15:03.994Z,1011.58
2022-10-18T17:20:47.481Z,1011.68
2022-10-18T17:26:32.073Z,1011.71
2022-10-18T17:32:15.690Z,1011.84
2022-10-18T17:37:58.861Z,1011.83
2022-10-18T17:43:42.047Z,1011.84
2022-10-18T17:49:25.783Z,1011.89
2022-10-18T17:55:09.203Z,1011.95
2022-10-18T18:00:53.886Z,1011.96
2022-10-18T18:06:42.369Z,1011.97
2022-10-18T18:12:25.807Z,1012
2022-10-18T18:18:09.555Z,1011.98
2022-10-18T18:23:53.058Z,1011.93
2022-10-18T18:29:36.295Z,1011.92
2022-10-18T18:35:19.499Z,1011.9
2022-10-18T18:41:10.145Z,1011.92
2022-10-18T18:46:53.594Z,1011.9
2022-10-18T18:52:37.134Z,1011.95
2022-10-18T18:58:20.395Z,1011.93
2022-10-18T19:04:04.999Z,1011.88
2022-10-18T19:09:48.217Z,1011.86
2022-10-18T19:15:31.779Z,1011.85
2022-10-18T19:21:15.324Z,1011.8
2022-10-18T19:26:59.351Z,1011.78
2022-10-18T19:32:42.731Z,1011.74
2022-10-18T19:38:25.920Z,1011.76
2022-10-18T19:44:09.208Z,1011.67
2022-10-18T19:49:52.335Z,1011.65
2022-10-18T19:55:35.615Z,1011.67
2022-10-18T20:01:20.157Z,1011.71
2022-10-18T20:07:04.026Z,1011.75
2022-10-18T20:12:47.374Z,1011.77
2022-10-18T20:18:31.424Z,1011.78
2022-10-18T20:24:15.231Z,1011.77
2022-10-18T20:30:00.999Z,1011.78
2022-10-18T20:35:52.871Z,1011.85
2022-10-18T20:41:39.467Z,1011.83
2022-10-18T20:47:23.932Z,1011.83
2022-10-18T20:53:08.382Z,1011.86
2022-10-18T20:58:52.531Z,1011.87
2022-10-18T21:04:40.033Z,1011.88
2022-10-18T21:10:26.302Z,1011.95
2022-10-18T21:16:09.787Z,1011.86
2022-10-18T21:21:55.366Z,1011.82
2022-10-18T21:27:38.906Z,1011.79
2022-10-18T21:33:22.400Z,1011.76
2022-10-18T21:39:07.584Z,1011.73
2022-10-18T21:44:50.906Z,1011.65
2022-10-18T21:50:34.336Z,1011.56
2022-10-18T21:56:18.212Z,1011.56
2022-10-18T22:02:01.334Z,1011.51
2022-10-18T22:07:44.646Z,1011.5
2022-10-18T22:13:27.979Z,1011.4
2022-10-18T22:19:11.186Z,1011.38
2022-10-18T22:24:54.398Z,1011.41
2022-10-18T22:30:40.500Z,1011.35
2022-10-18T22:36:23.897Z,1011.32
2022-10-18T22:42:07.117Z,1011.3
2022-10-18T22:47:50.223Z,1011.21
2022-10-18T22:53:34.049Z,1011.17
2022-10-18T22:59:17.276Z,1011.12
2022-10-18T23:05:00.738Z,1011.04
2022-10-18T23:10:44.110Z,1010.89
2022-10-18T23:16:27.315Z,1010.77
2022-10-18T23:22:10.426Z,1010.68
2022-10-18T23:27:53.531Z,1010.77
2022-10-18T23:33:36.590Z,1010.72
2022-10-18T23:39:20.155Z,1010.71
2022-10-18T23:45:03.435Z,1010.75
2022-10-18T23:50:46.850Z,1010.77
2022-10-18T23:56:30.131Z,1010.77
